Time;durP1;ratioP1;P1;durP2;ratioP2;P2;SDS_P1;SDS_P2;PMS_P1;PMS_P2;Temp;Humidity;BMP_temperature;BMP_pressure;BME280_temperature;BME280_humidity;BME280_pressure;Samples;Min_cycle;Max_cycle;Signal;HPM_P1;HPM_P2
2023/01/25 00:01:58;;;;;;;;;;;16.20;49.60;;;;;;5080275;28;19909;-80
2023/01/25 00:04:24;;;;;;;;;;;16.20;49.60;;;;;;5080372;28;20001;-81
2023/01/25 00:06:51;;;;;;;;;;;16.20;49.70;;;;;;5063237;28;20270;-81
2023/01/25 00:09:17;;;;;;;;;;;16.20;50.10;;;;;;5063095;28;19912;-81
2023/01/25 00:11:43;;;;;;;;;;;16.10;49.70;;;;;;5080144;28;19919;-81
2023/01/25 00:14:09;;;;;;;;;;;16.10;49.70;;;;;;5062581;28;19920;-81
2023/01/25 00:16:35;;;;;;;;;;;16.10;49.80;;;;;;5079669;28;20065;-81
2023/01/25 00:19:01;;;;;;;;;;;16.10;49.80;;;;;;5080022;28;19948;-81
2023/01/25 00:21:26;;;;;;;;;;;16.10;49.90;;;;;;5079767;28;19909;-81
2023/01/25 00:23:52;;;;;;;;;;;16.00;49.80;;;;;;5079645;28;19916;-81
2023/01/25 00:26:18;;;;;;;;;;;16.00;49.90;;;;;;5079710;28;19916;-81
2023/01/25 00:28:50;;;;;;;;;;;16.10;49.90;;;;;;5062568;28;19913;-81
2023/01/25 00:31:46;;;;;;;;;;;16.00;49.90;;;;;;5062360;28;19991;-81
2023/01/25 00:34:34;;;;;;;;;;;16.00;49.90;;;;;;5025936;28;19940;-81
2023/01/25 00:37:00;;;;;;;;;;;16.00;49.90;;;;;;5071380;28;20294;-81
2023/01/25 00:39:40;;;;;;;;;;;16.00;49.90;;;;;;5079653;28;19948;-81
2023/01/25 00:42:12;;;;;;;;;;;16.00;49.90;;;;;;5062393;28;19957;-80
2023/01/25 00:44:38;;;;;;;;;;;16.00;49.90;;;;;;5079304;28;19909;-80
2023/01/25 00:47:04;;;;;;;;;;;15.90;50.00;;;;;;5079272;28;19935;-81
2023/01/25 00:49:30;;;;;;;;;;;15.90;50.00;;;;;;5061229;28;20206;-81
2023/01/25 00:51:57;;;;;;;;;;;15.90;50.10;;;;;;5078779;28;19908;-81
2023/01/25 00:54:32;;;;;;;;;;;15.90;50.10;;;;;;5060920;28;19913;-80
2023/01/25 00:56:57;;;;;;;;;;;15.90;50.10;;;;;;5061829;28;19915;-80
2023/01/25 00:59:23;;;;;;;;;;;15.80;50.00;;;;;;5062355;28;19909;-81
2023/01/25 01:01:49;;;;;;;;;;;15.80;50.10;;;;;;5061860;28;19908;-81
2023/01/25 01:04:15;;;;;;;;;;;15.80;50.10;;;;;;5062114;28;19919;-81
2023/01/25 01:06:43;;;;;;;;;;;15.80;50.10;;;;;;5079111;28;19908;-81
2023/01/25 01:09:13;;;;;;;;;;;15.80;50.20;;;;;;5062047;28;20304;-81
2023/01/25 01:16:42;;;;;;;;;;;15.70;50.40;;;;;;5087814;28;19924;-77
2023/01/25 01:19:07;;;;;;;;;;;15.70;50.40;;;;;;5071107;28;19923;-76
2023/01/25 01:21:33;;;;;;;;;;;15.70;50.40;;;;;;5089162;28;19915;-77
2023/01/25 01:23:58;;;;;;;;;;;15.70;50.40;;;;;;5090266;28;20046;-77
2023/01/25 01:26:24;;;;;;;;;;;15.70;50.50;;;;;;5075319;28;19919;-77
2023/01/25 01:28:50;;;;;;;;;;;15.60;50.50;;;;;;5075884;28;19919;-76
2023/01/25 01:31:17;;;;;;;;;;;15.60;50.50;;;;;;5076662;28;19919;-77
2023/01/25 01:33:43;;;;;;;;;;;15.50;50.50;;;;;;5094123;28;19944;-77
2023/01/25 01:36:09;;;;;;;;;;;15.50;50.60;;;;;;5076452;28;19954;-77
2023/01/25 01:38:35;;;;;;;;;;;15.50;50.70;;;;;;5095368;28;19908;-77
2023/01/25 01:41:00;;;;;;;;;;;15.50;50.80;;;;;;5076514;28;19969;-77
2023/01/25 01:44:00;;;;;;;;;;;15.40;50.80;;;;;;5080341;28;19909;-77
2023/01/25 01:46:36;;;;;;;;;;;15.40;50.90;;;;;;5053560;28;20147;-77
2023/01/25 01:49:11;;;;;;;;;;;15.40;50.90;;;;;;5111924;28;19912;-76
2023/01/25 01:51:40;;;;;;;;;;;15.30;50.90;;;;;;5078778;28;19952;-76
2023/01/25 01:54:17;;;;;;;;;;;15.30;51.00;;;;;;5077353;28;19908;-76
2023/01/25 01:56:57;;;;;;;;;;;15.30;51.00;;;;;;5113058;28;19943;-77
2023/01/25 01:59:26;;;;;;;;;;;15.20;51.10;;;;;;5095743;28;19951;-77
2023/01/25 02:01:52;;;;;;;;;;;15.20;51.10;;;;;;5112106;28;19920;-76
2023/01/25 02:04:19;;;;;;;;;;;15.20;51.20;;;;;;5110301;28;19908;-77
2023/01/25 02:06:47;;;;;;;;;;;15.10;51.20;;;;;;5111571;28;20094;-77
2023/01/25 02:09:15;;;;;;;;;;;15.10;51.20;;;;;;5111689;28;20253;-77
2023/01/25 02:11:40;;;;;;;;;;;15.10;51.20;;;;;;5110782;28;19908;-77
2023/01/25 02:14:07;;;;;;;;;;;15.00;51.30;;;;;;5078177;28;20346;-77
2023/01/25 02:16:32;;;;;;;;;;;15.00;51.30;;;;;;5095151;28;19920;-77
2023/01/25 02:19:01;;;;;;;;;;;15.00;51.30;;;;;;5094138;28;19969;-77
2023/01/25 02:21:29;;;;;;;;;;;15.00;51.40;;;;;;5078896;28;19908;-77
2023/01/25 02:23:54;;;;;;;;;;;14.90;51.40;;;;;;5077110;28;19969;-77
2023/01/25 02:26:20;;;;;;;;;;;14.90;51.50;;;;;;5095765;28;19908;-77
2023/01/25 02:28:52;;;;;;;;;;;14.90;51.50;;;;;;5094648;28;19916;-77
2023/01/25 02:31:17;;;;;;;;;;;14.80;51.50;;;;;;5108766;28;19908;-77
2023/01/25 02:33:43;;;;;;;;;;;14.80;51.50;;;;;;5074542;28;20124;-76
2023/01/25 02:36:08;;;;;;;;;;;14.80;51.60;;;;;;5075892;28;19908;-77
2023/01/25 02:38:37;;;;;;;;;;;14.80;51.60;;;;;;5076434;28;19999;-76
2023/01/25 02:41:07;;;;;;;;;;;14.80;51.70;;;;;;5110831;28;20307;-76
2023/01/25 02:43:33;;;;;;;;;;;14.70;51.70;;;;;;5110384;28;19980;-77
2023/01/25 02:46:21;;;;;;;;;;;14.70;51.70;;;;;;5111111;28;19980;-77
2023/01/25 02:48:47;;;;;;;;;;;14.70;51.70;;;;;;5081008;28;20178;-76
2023/01/25 02:51:12;;;;;;;;;;;14.70;51.80;;;;;;5098701;28;20265;-77
2023/01/25 02:53:38;;;;;;;;;;;14.60;51.80;;;;;;5098360;28;19908;-76
2023/01/25 02:56:04;;;;;;;;;;;14.60;51.80;;;;;;5080703;28;20169;-76
2023/01/25 02:58:29;;;;;;;;;;;14.60;52.20;;;;;;5114602;28;20003;-76
2023/01/25 03:00:56;;;;;;;;;;;14.60;51.80;;;;;;5097973;28;19916;-76
2023/01/25 03:03:22;;;;;;;;;;;14.50;51.80;;;;;;5113992;28;20175;-76
2023/01/25 03:05:47;;;;;;;;;;;14.60;51.90;;;;;;5098694;28;19912;-76
2023/01/25 03:08:13;;;;;;;;;;;14.50;51.90;;;;;;5099041;28;19908;-76
2023/01/25 03:10:38;;;;;;;;;;;14.50;51.80;;;;;;5080047;28;20002;-76
2023/01/25 03:13:05;;;;;;;;;;;14.50;51.90;;;;;;5080792;28;19908;-76
2023/01/25 03:15:30;;;;;;;;;;;14.50;51.80;;;;;;5115050;28;19995;-76
2023/01/25 03:17:56;;;;;;;;;;;14.60;51.80;;;;;;5080671;28;19912;-76
2023/01/25 03:20:24;;;;;;;;;;;14.60;51.70;;;;;;5099506;28;19920;-76
2023/01/25 03:22:50;;;;;;;;;;;14.60;51.70;;;;;;5100008;28;19908;-76
2023/01/25 03:25:16;;;;;;;;;;;14.60;51.70;;;;;;5082434;28;19966;-76
2023/01/25 03:27:41;;;;;;;;;;;14.60;51.70;;;;;;5099481;28;19908;-76
2023/01/25 03:30:08;;;;;;;;;;;14.60;51.60;;;;;;5081932;28;19915;-76
2023/01/25 03:32:34;;;;;;;;;;;14.60;51.60;;;;;;5116109;28;19908;-76
2023/01/25 03:34:59;;;;;;;;;;;14.60;51.60;;;;;;5081180;28;19922;-76
2023/01/25 03:37:28;;;;;;;;;;;14.60;51.60;;;;;;5080949;28;19908;-77
2023/01/25 03:39:54;;;;;;;;;;;14.60;51.70;;;;;;5081208;28;19918;-76
2023/01/25 03:42:20;;;;;;;;;;;14.60;51.70;;;;;;5081232;28;19909;-76
2023/01/25 03:44:47;;;;;;;;;;;14.50;51.60;;;;;;5098107;28;19908;-76
2023/01/25 03:47:12;;;;;;;;;;;14.50;51.60;;;;;;5097531;28;20193;-76
2023/01/25 03:49:38;;;;;;;;;;;14.50;51.70;;;;;;5080950;28;19912;-76
2023/01/25 03:52:04;;;;;;;;;;;14.50;51.70;;;;;;5081401;28;19908;-75
2023/01/25 03:54:29;;;;;;;;;;;14.50;51.70;;;;;;5116376;28;19912;-76
2023/01/25 03:56:58;;;;;;;;;;;14.40;51.70;;;;;;5100954;28;19908;-76
2023/01/25 03:59:24;;;;;;;;;;;14.40;51.70;;;;;;5082849;28;20417;-76
2023/01/25 04:01:49;;;;;;;;;;;14.40;51.80;;;;;;5080125;28;19908;-76
2023/01/25 04:04:15;;;;;;;;;;;14.30;51.80;;;;;;5096824;28;19996;-76
2023/01/25 04:06:41;;;;;;;;;;;14.30;51.90;;;;;;5080454;28;20231;-76
2023/01/25 04:09:07;;;;;;;;;;;14.30;51.90;;;;;;5080163;28;20281;-76
2023/01/25 04:11:32;;;;;;;;;;;14.30;52.00;;;;;;5096304;28;19912;-76
2023/01/25 04:13:58;;;;;;;;;;;14.70;51.70;;;;;;5079444;28;19958;-77
2023/01/25 04:16:24;;;;;;;;;;;15.50;50.60;;;;;;5077929;28;19916;-76
2023/01/25 04:18:49;;;;;;;;;;;16.00;49.80;;;;;;5077844;28;19908;-76
2023/01/25 04:21:15;;;;;;;;;;;16.30;49.30;;;;;;5076584;28;19970;-76
2023/01/25 04:23:40;;;;;;;;;;;16.50;49.10;;;;;;5077209;28;20170;-76
2023/01/25 04:26:07;;;;;;;;;;;16.70;48.70;;;;;;5077246;28;20019;-76
2023/01/25 04:28:34;;;;;;;;;;;17.00;48.40;;;;;;5110128;28;20328;-76
2023/01/25 04:31:00;;;;;;;;;;;17.20;48.10;;;;;;5109635;28;20015;-77
2023/01/25 04:33:26;;;;;;;;;;;17.50;47.80;;;;;;5109840;28;20245;-76
2023/01/25 04:35:51;;;;;;;;;;;17.70;47.50;;;;;;5111701;28;20254;-77
2023/01/25 04:38:17;;;;;;;;;;;17.90;47.30;;;;;;5095867;28;19920;-76
2023/01/25 04:40:43;;;;;;;;;;;18.00;47.10;;;;;;5095796;28;20170;-77
2023/01/25 04:43:11;;;;;;;;;;;18.20;47.00;;;;;;5093420;28;19958;-76
2023/01/25 04:45:36;;;;;;;;;;;18.30;46.80;;;;;;5110243;28;19973;-76
2023/01/25 04:48:04;;;;;;;;;;;18.50;46.70;;;;;;5077536;28;19912;-76
2023/01/25 04:50:30;;;;;;;;;;;18.60;46.50;;;;;;5094675;28;19938;-77
2023/01/25 04:52:55;;;;;;;;;;;18.70;46.40;;;;;;5110535;28;20291;-77
2023/01/25 04:55:21;;;;;;;;;;;18.80;46.30;;;;;;5076112;28;20365;-77
2023/01/25 04:57:50;;;;;;;;;;;18.80;46.20;;;;;;5076096;28;20304;-77
2023/01/25 05:00:16;;;;;;;;;;;18.90;46.20;;;;;;5093538;28;19916;-77
2023/01/25 05:02:42;;;;;;;;;;;19.00;46.20;;;;;;5108684;28;20276;-77
2023/01/25 05:05:08;;;;;;;;;;;19.10;46.00;;;;;;5074940;28;19958;-77
2023/01/25 05:07:33;;;;;;;;;;;19.20;45.90;;;;;;5093755;28;19926;-77
2023/01/25 05:09:59;;;;;;;;;;;19.30;45.80;;;;;;5092811;28;19912;-77
2023/01/25 05:12:24;;;;;;;;;;;19.40;45.70;;;;;;5075484;28;19908;-77
2023/01/25 05:14:50;;;;;;;;;;;19.40;45.70;;;;;;5075584;28;19912;-77
2023/01/25 05:17:15;;;;;;;;;;;19.40;45.70;;;;;;5074892;28;19958;-77
2023/01/25 05:19:41;;;;;;;;;;;19.40;45.70;;;;;;5073957;28;20308;-77
2023/01/25 05:22:11;;;;;;;;;;;19.30;45.80;;;;;;5090540;28;20196;-77
2023/01/25 05:24:40;;;;;;;;;;;19.30;45.80;;;;;;5107532;28;19908;-77
2023/01/25 05:27:07;;;;;;;;;;;19.20;45.90;;;;;;5091097;28;19952;-77
2023/01/25 05:29:35;;;;;;;;;;;19.10;46.00;;;;;;5106072;28;19912;-77
2023/01/25 05:32:01;;;;;;;;;;;19.00;46.20;;;;;;5072466;28;20269;-77
2023/01/25 05:34:27;;;;;;;;;;;18.80;46.30;;;;;;5106009;28;20106;-77
2023/01/25 05:36:52;;;;;;;;;;;18.70;46.50;;;;;;5073505;28;19908;-77
2023/01/25 05:39:18;;;;;;;;;;;18.50;46.60;;;;;;5073567;28;19908;-77
2023/01/25 05:41:44;;;;;;;;;;;18.40;46.80;;;;;;5090925;28;20043;-77
2023/01/25 05:44:09;;;;;;;;;;;18.30;47.00;;;;;;5073090;28;19973;-77
2023/01/25 05:46:35;;;;;;;;;;;18.20;47.10;;;;;;5073994;28;19923;-77
2023/01/25 05:49:01;;;;;;;;;;;18.00;47.20;;;;;;5075999;28;19912;-76
2023/01/25 05:51:26;;;;;;;;;;;17.90;47.40;;;;;;5094434;28;19920;-77
2023/01/25 05:53:55;;;;;;;;;;;17.80;47.50;;;;;;5075428;28;19908;-76
2023/01/25 05:56:21;;;;;;;;;;;17.70;47.70;;;;;;5074309;28;19915;-76
2023/01/25 05:58:46;;;;;;;;;;;17.60;47.80;;;;;;5090384;28;20171;-76
2023/01/25 06:01:12;;;;;;;;;;;17.50;47.90;;;;;;5076335;22;20289;-16
2023/01/25 06:03:37;;;;;;;;;;;17.50;48.00;;;;;;5086367;28;20088;-16
2023/01/25 06:06:03;;;;;;;;;;;17.50;48.00;;;;;;5069620;28;19909;-16
2023/01/25 06:08:29;;;;;;;;;;;17.60;47.90;;;;;;5069079;28;19916;-17
2023/01/25 06:10:55;;;;;;;;;;;17.70;47.80;;;;;;5071493;28;20186;-18
2023/01/25 06:13:21;;;;;;;;;;;17.90;47.70;;;;;;5070075;28;19920;-16
2023/01/25 06:15:54;;;;;;;;;;;18.10;47.40;;;;;;5067028;28;19908;-15
2023/01/25 06:18:20;;;;;;;;;;;18.40;47.10;;;;;;5071781;28;19912;-15
2023/01/25 06:20:46;;;;;;;;;;;18.60;46.90;;;;;;5072660;28;19916;-15
2023/01/25 06:23:14;;;;;;;;;;;18.70;46.70;;;;;;5069805;28;20280;-15
2023/01/25 06:25:43;;;;;;;;;;;18.80;46.60;;;;;;5085458;28;19920;-17
2023/01/25 06:28:08;;;;;;;;;;;18.90;46.60;;;;;;5070373;28;19917;-17
2023/01/25 06:30:34;;;;;;;;;;;18.90;46.40;;;;;;5068414;28;19908;-14
2023/01/25 06:33:00;;;;;;;;;;;19.00;46.30;;;;;;5074974;28;20330;-15
2023/01/25 06:35:26;;;;;;;;;;;19.10;46.30;;;;;;5089808;28;20038;-17
2023/01/25 06:37:55;;;;;;;;;;;19.20;46.20;;;;;;5090237;28;20306;-14
2023/01/25 06:40:21;;;;;;;;;;;19.10;46.20;;;;;;5090776;28;20257;-14
2023/01/25 06:42:46;;;;;;;;;;;19.10;46.20;;;;;;5089637;28;19916;-16
2023/01/25 06:45:12;;;;;;;;;;;19.00;46.30;;;;;;5088531;28;19908;-15
2023/01/25 06:47:38;;;;;;;;;;;19.00;46.30;;;;;;5090331;28;19908;-14
2023/01/25 06:50:07;;;;;;;;;;;18.90;46.40;;;;;;5088318;28;19912;-15
2023/01/25 06:52:35;;;;;;;;;;;18.90;46.50;;;;;;5087882;28;19984;-17
2023/01/25 06:55:02;;;;;;;;;;;18.80;46.50;;;;;;5088129;28;20162;-16
2023/01/25 06:57:28;;;;;;;;;;;18.70;46.60;;;;;;5086396;28;19999;-14
2023/01/25 06:59:54;;;;;;;;;;;18.60;46.70;;;;;;5086626;28;19916;-13
2023/01/25 07:02:19;;;;;;;;;;;18.50;46.80;;;;;;5089062;28;19981;-16
2023/01/25 07:04:45;;;;;;;;;;;18.40;46.90;;;;;;5088134;28;20289;-17
2023/01/25 07:07:11;;;;;;;;;;;18.30;47.00;;;;;;5088066;28;20148;-17
2023/01/25 07:09:36;;;;;;;;;;;18.30;47.10;;;;;;5087852;28;19919;-16
2023/01/25 07:12:03;;;;;;;;;;;18.20;47.20;;;;;;5089446;28;19908;-16
2023/01/25 07:14:29;;;;;;;;;;;18.10;47.20;;;;;;5087631;28;19981;-17
2023/01/25 07:16:58;;;;;;;;;;;18.00;47.30;;;;;;5088181;28;19917;-16
2023/01/25 07:19:23;;;;;;;;;;;18.00;47.30;;;;;;5088187;28;20063;-16
2023/01/25 07:21:49;;;;;;;;;;;18.10;47.30;;;;;;5088172;28;20285;-16
2023/01/25 07:24:15;;;;;;;;;;;18.10;47.20;;;;;;5088164;28;20069;-16
2023/01/25 07:26:42;;;;;;;;;;;18.20;47.10;;;;;;5088181;28;19984;-16
2023/01/25 07:29:12;;;;;;;;;;;18.20;47.10;;;;;;5084917;28;20284;-17
2023/01/25 07:31:38;;;;;;;;;;;18.10;47.10;;;;;;5087735;28;20379;-19
2023/01/25 07:34:03;;;;;;;;;;;18.00;47.20;;;;;;5089097;28;19916;-17
2023/01/25 07:36:29;;;;;;;;;;;17.90;47.30;;;;;;5090706;28;19908;-16
2023/01/25 07:38:56;;;;;;;;;;;17.80;47.40;;;;;;5090473;28;20265;-16
2023/01/25 07:41:21;;;;;;;;;;;17.70;47.60;;;;;;5090907;28;19973;-15
2023/01/25 07:43:47;;;;;;;;;;;17.60;47.70;;;;;;5091565;28;20010;-17
2023/01/25 07:46:14;;;;;;;;;;;17.50;47.80;;;;;;5091131;28;19916;-15
2023/01/25 07:48:43;;;;;;;;;;;17.50;48.40;;;;;;5091765;28;19923;-17
2023/01/25 07:51:21;;;;;;;;;;;17.70;47.70;;;;;;5091983;28;20007;-14
2023/01/25 07:53:47;;;;;;;;;;;18.10;47.20;;;;;;5080123;28;20296;-18
2023/01/25 07:56:13;;;;;;;;;;;18.50;46.90;;;;;;5072457;28;19932;-17
2023/01/25 07:58:38;;;;;;;;;;;18.90;46.40;;;;;;5072841;28;19920;-14
2023/01/25 08:01:17;;;;;;;;;;;19.10;46.20;;;;;;5071664;28;20087;-17
2023/01/25 08:03:43;;;;;;;;;;;19.10;46.10;;;;;;5068981;28;19968;-16
2023/01/25 08:06:09;;;;;;;;;;;19.10;46.10;;;;;;5070716;28;19920;-16
2023/01/25 08:08:36;;;;;;;;;;;19.10;46.20;;;;;;5074378;28;19981;-16
2023/01/25 08:11:20;;;;;;;;;;;19.00;46.10;;;;;;5079584;28;19908;-16
2023/01/25 08:13:46;;;;;;;;;;;19.00;46.20;;;;;;5079672;28;20257;-16
2023/01/25 08:16:18;;;;;;;;;;;19.00;46.20;;;;;;5079946;28;19958;-17
2023/01/25 08:18:47;;;;;;;;;;;19.10;46.20;;;;;;5079277;28;20166;-18
2023/01/25 08:21:13;;;;;;;;;;;19.00;46.10;;;;;;5077754;28;19908;-16
2023/01/25 08:23:39;;;;;;;;;;;19.00;46.20;;;;;;5076682;28;20380;-17
2023/01/25 08:26:05;;;;;;;;;;;18.90;46.20;;;;;;5078373;28;19909;-17
2023/01/25 08:28:31;;;;;;;;;;;18.90;46.30;;;;;;5071803;28;20140;-15
2023/01/25 08:31:10;;;;;;;;;;;18.90;46.30;;;;;;5071695;28;20405;-16
2023/01/25 08:33:35;;;;;;;;;;;18.80;46.40;;;;;;5075768;28;19963;-15
2023/01/25 08:36:01;;;;;;;;;;;18.70;46.40;;;;;;5078587;28;20396;-16
2023/01/25 08:38:27;;;;;;;;;;;18.60;46.50;;;;;;5077177;28;19908;-17
2023/01/25 08:40:55;;;;;;;;;;;18.50;46.60;;;;;;5070402;28;19919;-16
2023/01/25 08:43:21;;;;;;;;;;;18.40;46.70;;;;;;5069162;28;19974;-18
2023/01/25 08:45:54;;;;;;;;;;;18.30;46.80;;;;;;5070846;28;19908;-16
2023/01/25 08:48:19;;;;;;;;;;;18.20;46.90;;;;;;5068391;28;20383;-15
2023/01/25 08:50:46;;;;;;;;;;;18.20;47.00;;;;;;5066738;28;20019;-16
2023/01/25 08:53:12;;;;;;;;;;;18.10;47.10;;;;;;5068628;28;19908;-17
2023/01/25 08:55:41;;;;;;;;;;;18.10;47.10;;;;;;5070442;28;19908;-18
2023/01/25 08:58:12;;;;;;;;;;;18.10;47.10;;;;;;5070961;28;19908;-17
2023/01/25 09:00:38;;;;;;;;;;;18.00;47.10;;;;;;5070152;28;19939;-17
2023/01/25 09:03:03;;;;;;;;;;;18.00;47.10;;;;;;5068244;28;19908;-19
2023/01/25 09:05:29;;;;;;;;;;;18.10;47.10;;;;;;5068318;28;19923;-18
2023/01/25 09:07:55;;;;;;;;;;;18.10;47.10;;;;;;5068958;28;19909;-18
2023/01/25 09:10:20;;;;;;;;;;;18.30;47.00;;;;;;5055222;28;19912;-16
2023/01/25 09:12:46;;;;;;;;;;;18.40;46.80;;;;;;5078478;28;20228;-18
2023/01/25 09:15:12;;;;;;;;;;;18.50;46.70;;;;;;5077526;28;19916;-17
2023/01/25 09:17:37;;;;;;;;;;;18.50;46.60;;;;;;5077692;28;19973;-19
2023/01/25 09:20:05;;;;;;;;;;;18.60;46.50;;;;;;5077412;28;20528;-17
2023/01/25 09:22:31;;;;;;;;;;;18.70;46.50;;;;;;5072054;28;20431;-19
2023/01/25 09:24:56;;;;;;;;;;;18.80;46.30;;;;;;5075940;28;20274;-18
2023/01/25 09:27:22;;;;;;;;;;;18.90;46.20;;;;;;5077112;28;19920;-19
2023/01/25 09:29:53;;;;;;;;;;;18.90;46.10;;;;;;5077184;28;19913;-15
2023/01/25 09:32:19;;;;;;;;;;;18.90;46.10;;;;;;5077956;28;19931;-18
2023/01/25 09:34:44;;;;;;;;;;;19.00;46.10;;;;;;5077879;28;20194;-17
2023/01/25 09:37:13;;;;;;;;;;;19.00;46.00;;;;;;5076997;28;19912;-18
2023/01/25 09:39:41;;;;;;;;;;;18.90;46.00;;;;;;5070667;28;19908;-18
2023/01/25 09:42:12;;;;;;;;;;;18.90;46.10;;;;;;5068102;28;19915;-18
2023/01/25 09:44:44;;;;;;;;;;;18.90;46.10;;;;;;5068196;28;20265;-17
2023/01/25 09:47:19;;;;;;;;;;;18.90;46.10;;;;;;5067031;28;20220;-18
2023/01/25 09:50:03;;;;;;;;;;;18.90;46.10;;;;;;5069335;28;19923;-18
2023/01/25 09:52:32;;;;;;;;;;;18.80;46.20;;;;;;5070240;28;19920;-17
2023/01/25 09:54:58;;;;;;;;;;;18.80;46.30;;;;;;5070916;28;19924;-19
2023/01/25 09:57:23;;;;;;;;;;;18.70;46.30;;;;;;5069235;28;19981;-16
2023/01/25 09:59:50;;;;;;;;;;;18.60;46.40;;;;;;5068249;28;19908;-19
2023/01/25 10:02:19;;;;;;;;;;;18.60;46.40;;;;;;5070566;28;19916;-19
2023/01/25 10:04:44;;;;;;;;;;;18.60;46.50;;;;;;5069599;28;19971;-17
2023/01/25 10:07:17;;;;;;;;;;;18.60;46.50;;;;;;5074407;28;19917;-19
2023/01/25 10:10:11;;;;;;;;;;;18.60;46.50;;;;;;5077613;28;19967;-17
2023/01/25 10:12:40;;;;;;;;;;;18.50;46.50;;;;;;5077149;28;19919;-15
2023/01/25 10:15:26;;;;;;;;;;;18.50;46.50;;;;;;5077592;28;19919;-18
2023/01/25 10:17:57;;;;;;;;;;;18.50;46.60;;;;;;5076801;28;20334;-31
2023/01/25 10:20:39;;;;;;;;;;;18.50;46.60;;;;;;5077402;28;19954;-17
2023/01/25 10:23:20;;;;;;;;;;;18.50;46.60;;;;;;5076757;28;19979;-19
2023/01/25 10:25:52;;;;;;;;;;;18.50;46.70;;;;;;5077333;28;19927;-17
2023/01/25 10:28:27;;;;;;;;;;;18.40;46.70;;;;;;5075883;28;19909;-19
2023/01/25 10:30:59;;;;;;;;;;;18.40;46.70;;;;;;5076200;28;20011;-15
2023/01/25 10:33:25;;;;;;;;;;;18.40;46.70;;;;;;5075166;28;19916;-17
2023/01/25 10:35:50;;;;;;;;;;;18.40;46.70;;;;;;5075935;28;19920;-18
2023/01/25 10:38:36;;;;;;;;;;;18.50;46.70;;;;;;5075286;28;19909;-17
2023/01/25 10:41:04;;;;;;;;;;;18.40;46.70;;;;;;5074608;28;19908;-20
2023/01/25 10:43:29;;;;;;;;;;;18.40;46.70;;;;;;5075766;28;19912;-16
2023/01/25 10:45:55;;;;;;;;;;;18.40;46.60;;;;;;5075750;28;20201;-16
2023/01/25 10:48:25;;;;;;;;;;;18.50;46.60;;;;;;5074949;28;19962;-18
2023/01/25 10:50:54;;;;;;;;;;;18.40;46.70;;;;;;5076937;28;19923;-19
2023/01/25 10:53:22;;;;;;;;;;;18.40;46.70;;;;;;5069405;28;19919;-18
2023/01/25 10:56:03;;;;;;;;;;;18.30;46.80;;;;;;5070689;28;19979;-18
2023/01/25 10:58:38;;;;;;;;;;;18.20;46.90;;;;;;5071528;28;19928;-18
2023/01/25 11:01:05;;;;;;;;;;;18.10;47.10;;;;;;5069978;28;19916;-16
2023/01/25 11:03:49;;;;;;;;;;;17.90;47.30;;;;;;5069748;28;19908;-18
2023/01/25 11:06:27;;;;;;;;;;;17.80;47.60;;;;;;5070606;28;19940;-19
2023/01/25 11:08:53;;;;;;;;;;;17.60;47.80;;;;;;5071215;28;19921;-19
2023/01/25 11:11:33;;;;;;;;;;;17.60;47.90;;;;;;5073951;28;19908;-17
2023/01/25 11:13:59;;;;;;;;;;;17.70;47.90;;;;;;5076100;28;19908;-19
2023/01/25 11:16:35;;;;;;;;;;;17.90;47.80;;;;;;5080125;28;20400;-18
2023/01/25 11:19:01;;;;;;;;;;;18.10;47.50;;;;;;5079921;28;19909;-17
2023/01/25 11:21:31;;;;;;;;;;;18.40;47.20;;;;;;5079800;28;20004;-16
2023/01/25 11:24:02;;;;;;;;;;;18.60;46.90;;;;;;5080277;28;19908;-18
2023/01/25 11:26:31;;;;;;;;;;;18.80;46.80;;;;;;5079171;28;19909;-17
2023/01/25 11:29:17;;;;;;;;;;;18.90;46.70;;;;;;5079128;28;19955;-18
2023/01/25 11:31:46;;;;;;;;;;;19.00;46.60;;;;;;5079474;28;19927;-18
2023/01/25 11:34:13;;;;;;;;;;;19.10;46.50;;;;;;5078795;28;19962;-19
2023/01/25 11:36:59;;;;;;;;;;;19.20;46.40;;;;;;5078668;28;19920;-17
2023/01/25 11:39:42;;;;;;;;;;;19.20;46.30;;;;;;5080225;28;19935;-19
2023/01/25 11:42:08;;;;;;;;;;;19.20;46.30;;;;;;5080118;28;19924;-17
2023/01/25 11:44:36;;;;;;;;;;;19.20;46.30;;;;;;5080303;28;19912;-19
2023/01/25 11:47:11;;;;;;;;;;;19.20;46.80;;;;;;5079992;28;19920;-17
2023/01/25 11:49:43;;;;;;;;;;;19.10;46.40;;;;;;5079927;28;19924;-18
2023/01/25 11:52:27;;;;;;;;;;;19.10;46.50;;;;;;5078714;28;20197;-18
2023/01/25 11:55:13;;;;;;;;;;;19.00;46.50;;;;;;5095567;28;19908;-16
2023/01/25 11:58:00;;;;;;;;;;;18.90;46.60;;;;;;5078957;28;19944;-19
2023/01/25 12:00:44;;;;;;;;;;;18.80;46.80;;;;;;5078463;28;20387;-19
2023/01/25 12:03:19;;;;;;;;;;;18.60;47.30;;;;;;5077946;28;19917;-17
2023/01/25 12:05:50;;;;;;;;;;;18.60;47.60;;;;;;5077031;28;19916;-19
2023/01/25 12:08:36;;;;;;;;;;;18.40;47.70;;;;;;5078285;28;19919;-19
2023/01/25 12:11:05;;;;;;;;;;;18.30;47.90;;;;;;5077728;28;19924;-17
2023/01/25 12:13:49;;;;;;;;;;;18.20;48.00;;;;;;5077941;28;19912;-18
2023/01/25 12:16:52;;;;;;;;;;;18.10;48.10;;;;;;5078492;28;20243;-19
2023/01/25 12:19:21;;;;;;;;;;;18.10;48.20;;;;;;5018510;28;19909;-18
2023/01/25 12:21:56;;;;;;;;;;;18.00;48.30;;;;;;5057843;28;19913;-19
2023/01/25 12:24:51;;;;;;;;;;;17.90;48.30;;;;;;5057856;28;19962;-20
2023/01/25 12:27:19;;;;;;;;;;;17.90;48.70;;;;;;5046447;28;19908;-16
2023/01/25 12:29:57;;;;;;;;;;;17.90;48.40;;;;;;5057478;28;19912;-19
2023/01/25 12:32:22;;;;;;;;;;;17.90;48.40;;;;;;5057273;28;19945;-17
2023/01/25 12:34:52;;;;;;;;;;;18.00;48.40;;;;;;5057993;28;19955;-17
2023/01/25 12:37:20;;;;;;;;;;;18.00;48.30;;;;;;5059005;28;20185;-18
2023/01/25 12:39:57;;;;;;;;;;;18.10;48.30;;;;;;5057785;28;19923;-19
2023/01/25 12:42:33;;;;;;;;;;;18.10;48.20;;;;;;5057409;28;19974;-17
2023/01/25 12:45:03;;;;;;;;;;;18.30;48.20;;;;;;5052500;28;20297;-19
2023/01/25 12:47:32;;;;;;;;;;;18.30;48.00;;;;;;5057762;28;19974;-17
2023/01/25 12:50:01;;;;;;;;;;;18.40;47.90;;;;;;5075716;28;20008;-19
2023/01/25 12:52:29;;;;;;;;;;;18.50;47.80;;;;;;5076562;28;19913;-18
2023/01/25 12:55:05;;;;;;;;;;;18.60;47.80;;;;;;5069893;28;19908;-17
2023/01/25 12:57:42;;;;;;;;;;;18.60;47.80;;;;;;5068183;28;19935;-20
2023/01/25 13:00:15;;;;;;;;;;;18.60;47.70;;;;;;5066899;28;20185;-17
2023/01/25 13:02:44;;;;;;;;;;;18.60;47.70;;;;;;5065542;28;20044;-15
2023/01/25 13:05:17;;;;;;;;;;;18.60;47.70;;;;;;5066687;28;19916;-17
2023/01/25 13:07:53;;;;;;;;;;;18.60;47.80;;;;;;5066863;28;19908;-17
2023/01/25 13:10:42;;;;;;;;;;;18.50;47.80;;;;;;5066583;28;19913;-17
2023/01/25 13:13:19;;;;;;;;;;;18.50;47.90;;;;;;5066156;28;19908;-19
2023/01/25 13:15:45;;;;;;;;;;;18.50;48.00;;;;;;5065108;28;20052;-16
2023/01/25 13:18:34;;;;;;;;;;;18.50;48.00;;;;;;5065620;28;19913;-19
2023/01/25 13:21:02;;;;;;;;;;;18.40;48.10;;;;;;5065998;28;20338;-19
2023/01/25 13:23:31;;;;;;;;;;;18.40;48.20;;;;;;5065270;28;19974;-19
2023/01/25 13:26:18;;;;;;;;;;;18.30;48.20;;;;;;5065658;28;20258;-18
2023/01/25 13:28:45;;;;;;;;;;;18.20;48.30;;;;;;5065341;28;19922;-15
2023/01/25 13:31:31;;;;;;;;;;;18.20;48.50;;;;;;5062532;28;19919;-16
2023/01/25 13:33:59;;;;;;;;;;;18.10;48.50;;;;;;5061070;28;19968;-16
2023/01/25 13:36:38;;;;;;;;;;;18.10;48.50;;;;;;5064656;28;20253;-17
2023/01/25 13:39:21;;;;;;;;;;;18.10;48.60;;;;;;5063080;28;19919;-17
2023/01/25 13:42:00;;;;;;;;;;;18.00;48.70;;;;;;5063224;28;19916;-15
2023/01/25 13:44:27;;;;;;;;;;;17.90;48.90;;;;;;5063783;28;19975;-16
2023/01/25 13:46:53;;;;;;;;;;;17.80;49.00;;;;;;5061400;28;20181;-17
2023/01/25 13:49:25;;;;;;;;;;;17.70;49.20;;;;;;5062041;28;20289;-18
2023/01/25 13:51:54;;;;;;;;;;;17.60;49.30;;;;;;5063532;28;19916;-19
2023/01/25 13:54:23;;;;;;;;;;;17.50;49.50;;;;;;5064429;28;19966;-18
2023/01/25 13:57:01;;;;;;;;;;;17.40;49.60;;;;;;5064061;28;20235;-16
2023/01/25 13:59:27;;;;;;;;;;;17.30;49.80;;;;;;5063250;28;19948;-15
2023/01/25 14:01:52;;;;;;;;;;;17.20;49.90;;;;;;5064705;28;20037;-15
2023/01/25 14:04:18;;;;;;;;;;;17.20;50.00;;;;;;5065287;28;19973;-18
2023/01/25 14:06:43;;;;;;;;;;;17.20;50.00;;;;;;5065236;28;19908;-17
2023/01/25 14:09:14;;;;;;;;;;;17.60;49.70;;;;;;5066133;28;20212;-16
2023/01/25 14:11:55;;;;;;;;;;;18.00;49.30;;;;;;5068232;28;20164;-16
2023/01/25 14:14:25;;;;;;;;;;;18.30;48.90;;;;;;5066363;28;19912;-18
2023/01/25 14:17:00;;;;;;;;;;;18.60;48.70;;;;;;5066621;28;19978;-19
2023/01/25 14:19:28;;;;;;;;;;;18.70;48.50;;;;;;5065508;28;19919;-16
2023/01/25 14:22:13;;;;;;;;;;;18.80;48.40;;;;;;5064502;28;20115;-18
2023/01/25 14:24:38;;;;;;;;;;;18.80;48.30;;;;;;5065499;28;19978;-18
2023/01/25 14:27:05;;;;;;;;;;;19.00;48.30;;;;;;5065500;28;19917;-16
2023/01/25 14:29:32;;;;;;;;;;;19.00;48.20;;;;;;5064877;28;20446;-16
2023/01/25 14:31:58;;;;;;;;;;;19.00;48.20;;;;;;5079521;28;20315;-15
2023/01/25 14:34:24;;;;;;;;;;;19.00;48.20;;;;;;5063839;28;19908;-18